sensor_id;sensor_type;location;lat;lon;timestamp;P1;durP1;ratioP1;P2;durP2;ratioP2
8514;SDS011;4295;51.024;7.000;2022-08-21T00:00:38;86.33;;;11.40;;
8514;SDS011;4295;51.024;7.000;2022-08-21T00:03:04;91.03;;;12.67;;
8514;SDS011;4295;51.024;7.000;2022-08-21T00:05:30;86.63;;;11.67;;
8514;SDS011;4295;51.024;7.000;2022-08-21T00:07:56;86.07;;;13.23;;
8514;SDS011;4295;51.024;7.000;2022-08-21T00:10:21;90.47;;;13.53;;
8514;SDS011;4295;51.024;7.000;2022-08-21T00:12:47;83.00;;;12.53;;
8514;SDS011;4295;51.024;7.000;2022-08-21T00:15:14;83.20;;;11.67;;
8514;SDS011;4295;51.024;7.000;2022-08-21T00:17:40;84.87;;;13.00;;
8514;SDS011;4295;51.024;7.000;2022-08-21T00:20:06;85.57;;;12.77;;
8514;SDS011;4295;51.024;7.000;2022-08-21T00:22:33;91.13;;;14.80;;
8514;SDS011;4295;51.024;7.000;2022-08-21T00:24:58;87.00;;;11.53;;
8514;SDS011;4295;51.024;7.000;2022-08-21T00:27:23;87.20;;;11.93;;
8514;SDS011;4295;51.024;7.000;2022-08-21T00:29:49;85.57;;;11.13;;
8514;SDS011;4295;51.024;7.000;2022-08-21T00:32:19;88.63;;;13.00;;
8514;SDS011;4295;51.024;7.000;2022-08-21T00:34:44;83.87;;;11.70;;
8514;SDS011;4295;51.024;7.000;2022-08-21T00:37:10;87.03;;;12.33;;
8514;SDS011;4295;51.024;7.000;2022-08-21T00:39:35;86.10;;;12.50;;
8514;SDS011;4295;51.024;7.000;2022-08-21T00:42:00;86.50;;;12.17;;
8514;SDS011;4295;51.024;7.000;2022-08-21T00:44:25;91.17;;;12.33;;
8514;SDS011;4295;51.024;7.000;2022-08-21T00:46:50;82.90;;;11.40;;
8514;SDS011;4295;51.024;7.000;2022-08-21T00:49:16;84.27;;;11.87;;
8514;SDS011;4295;51.024;7.000;2022-08-21T00:51:44;83.77;;;12.73;;
8514;SDS011;4295;51.024;7.000;2022-08-21T00:54:11;81.50;;;11.20;;
8514;SDS011;4295;51.024;7.000;2022-08-21T00:56:36;85.37;;;12.70;;
8514;SDS011;4295;51.024;7.000;2022-08-21T00:59:02;85.20;;;12.50;;
8514;SDS011;4295;51.024;7.000;2022-08-21T01:01:27;85.50;;;13.97;;
8514;SDS011;4295;51.024;7.000;2022-08-21T01:03:53;85.37;;;13.40;;
8514;SDS011;4295;51.024;7.000;2022-08-21T01:06:18;85.73;;;12.20;;
8514;SDS011;4295;51.024;7.000;2022-08-21T01:08:44;87.00;;;12.60;;
8514;SDS011;4295;51.024;7.000;2022-08-21T01:11:09;85.80;;;12.37;;
8514;SDS011;4295;51.024;7.000;2022-08-21T01:13:36;85.67;;;12.70;;
8514;SDS011;4295;51.024;7.000;2022-08-21T01:16:02;87.27;;;13.20;;
8514;SDS011;4295;51.024;7.000;2022-08-21T01:18:28;85.53;;;11.57;;
8514;SDS011;4295;51.024;7.000;2022-08-21T01:21:13;84.40;;;12.10;;
8514;SDS011;4295;51.024;7.000;2022-08-21T01:23:40;85.17;;;11.87;;
8514;SDS011;4295;51.024;7.000;2022-08-21T01:26:06;86.33;;;11.60;;
8514;SDS011;4295;51.024;7.000;2022-08-21T01:28:33;86.10;;;12.50;;
8514;SDS011;4295;51.024;7.000;2022-08-21T01:30:59;85.97;;;12.30;;
8514;SDS011;4295;51.024;7.000;2022-08-21T01:33:25;89.07;;;11.53;;
8514;SDS011;4295;51.024;7.000;2022-08-21T01:35:50;84.23;;;11.27;;
8514;SDS011;4295;51.024;7.000;2022-08-21T01:38:16;85.70;;;11.37;;
8514;SDS011;4295;51.024;7.000;2022-08-21T01:40:41;83.83;;;11.10;;
8514;SDS011;4295;51.024;7.000;2022-08-21T01:43:07;84.80;;;11.17;;
8514;SDS011;4295;51.024;7.000;2022-08-21T01:45:32;82.20;;;12.03;;
8514;SDS011;4295;51.024;7.000;2022-08-21T01:47:57;85.63;;;12.37;;
8514;SDS011;4295;51.024;7.000;2022-08-21T01:50:22;83.90;;;11.27;;
8514;SDS011;4295;51.024;7.000;2022-08-21T01:52:48;86.17;;;11.90;;
8514;SDS011;4295;51.024;7.000;2022-08-21T01:55:14;83.87;;;11.90;;
8514;SDS011;4295;51.024;7.000;2022-08-21T01:57:39;85.87;;;11.93;;
8514;SDS011;4295;51.024;7.000;2022-08-21T02:00:06;93.10;;;12.70;;
8514;SDS011;4295;51.024;7.000;2022-08-21T02:02:33;85.77;;;11.80;;
8514;SDS011;4295;51.024;7.000;2022-08-21T02:04:58;87.43;;;13.40;;
8514;SDS011;4295;51.024;7.000;2022-08-21T02:07:24;88.17;;;13.07;;
8514;SDS011;4295;51.024;7.000;2022-08-21T02:09:49;87.87;;;12.37;;
8514;SDS011;4295;51.024;7.000;2022-08-21T02:12:14;87.87;;;13.73;;
8514;SDS011;4295;51.024;7.000;2022-08-21T02:14:40;85.87;;;11.87;;
8514;SDS011;4295;51.024;7.000;2022-08-21T02:17:05;82.43;;;11.60;;
8514;SDS011;4295;51.024;7.000;2022-08-21T02:19:30;91.73;;;12.83;;
8514;SDS011;4295;51.024;7.000;2022-08-21T02:21:55;82.97;;;12.30;;
8514;SDS011;4295;51.024;7.000;2022-08-21T02:24:20;85.87;;;12.33;;
8514;SDS011;4295;51.024;7.000;2022-08-21T02:26:46;87.43;;;13.50;;
8514;SDS011;4295;51.024;7.000;2022-08-21T02:29:12;85.97;;;14.00;;
8514;SDS011;4295;51.024;7.000;2022-08-21T02:31:37;83.83;;;12.23;;
8514;SDS011;4295;51.024;7.000;2022-08-21T02:34:02;84.27;;;12.37;;
8514;SDS011;4295;51.024;7.000;2022-08-21T02:36:27;87.17;;;13.90;;
8514;SDS011;4295;51.024;7.000;2022-08-21T02:38:53;86.60;;;13.03;;
8514;SDS011;4295;51.024;7.000;2022-08-21T02:41:19;83.30;;;13.07;;
8514;SDS011;4295;51.024;7.000;2022-08-21T02:43:44;86.70;;;11.60;;
8514;SDS011;4295;51.024;7.000;2022-08-21T02:46:11;85.40;;;11.57;;
8514;SDS011;4295;51.024;7.000;2022-08-21T02:48:37;87.57;;;13.53;;
8514;SDS011;4295;51.024;7.000;2022-08-21T02:51:07;88.13;;;13.50;;
8514;SDS011;4295;51.024;7.000;2022-08-21T02:53:33;86.47;;;12.33;;
8514;SDS011;4295;51.024;7.000;2022-08-21T02:56:00;86.33;;;13.07;;
8514;SDS011;4295;51.024;7.000;2022-08-21T02:58:27;85.07;;;11.87;;
8514;SDS011;4295;51.024;7.000;2022-08-21T03:00:53;89.10;;;13.50;;
8514;SDS011;4295;51.024;7.000;2022-08-21T03:03:18;84.47;;;12.30;;
8514;SDS011;4295;51.024;7.000;2022-08-21T03:05:46;86.10;;;13.17;;
8514;SDS011;4295;51.024;7.000;2022-08-21T03:08:12;84.47;;;11.93;;
8514;SDS011;4295;51.024;7.000;2022-08-21T03:10:38;87.30;;;13.50;;
8514;SDS011;4295;51.024;7.000;2022-08-21T03:13:04;84.37;;;12.77;;
8514;SDS011;4295;51.024;7.000;2022-08-21T03:15:30;87.30;;;12.60;;
8514;SDS011;4295;51.024;7.000;2022-08-21T03:17:55;88.30;;;14.07;;
8514;SDS011;4295;51.024;7.000;2022-08-21T03:20:22;85.87;;;12.37;;
8514;SDS011;4295;51.024;7.000;2022-08-21T03:22:48;86.87;;;12.97;;
8514;SDS011;4295;51.024;7.000;2022-08-21T03:25:13;88.73;;;14.57;;
8514;SDS011;4295;51.024;7.000;2022-08-21T03:27:39;86.10;;;12.50;;
8514;SDS011;4295;51.024;7.000;2022-08-21T03:30:05;84.03;;;12.00;;
8514;SDS011;4295;51.024;7.000;2022-08-21T03:32:30;91.33;;;13.17;;
8514;SDS011;4295;51.024;7.000;2022-08-21T03:34:56;87.87;;;13.53;;
8514;SDS011;4295;51.024;7.000;2022-08-21T03:37:21;88.97;;;12.50;;
8514;SDS011;4295;51.024;7.000;2022-08-21T03:39:47;86.57;;;12.70;;
8514;SDS011;4295;51.024;7.000;2022-08-21T03:42:12;84.90;;;11.73;;
8514;SDS011;4295;51.024;7.000;2022-08-21T03:44:37;88.83;;;12.43;;
8514;SDS011;4295;51.024;7.000;2022-08-21T03:47:04;95.40;;;12.50;;
8514;SDS011;4295;51.024;7.000;2022-08-21T03:49:29;86.87;;;14.67;;
8514;SDS011;4295;51.024;7.000;2022-08-21T03:51:54;83.23;;;12.27;;
8514;SDS011;4295;51.024;7.000;2022-08-21T03:54:20;86.90;;;12.53;;
8514;SDS011;4295;51.024;7.000;2022-08-21T03:56:45;85.57;;;11.40;;
8514;SDS011;4295;51.024;7.000;2022-08-21T03:59:10;86.73;;;11.97;;
8514;SDS011;4295;51.024;7.000;2022-08-21T04:01:36;90.10;;;12.80;;
8514;SDS011;4295;51.024;7.000;2022-08-21T04:04:01;85.37;;;11.90;;
8514;SDS011;4295;51.024;7.000;2022-08-21T04:06:27;87.40;;;12.07;;
8514;SDS011;4295;51.024;7.000;2022-08-21T04:08:52;84.47;;;12.13;;
8514;SDS011;4295;51.024;7.000;2022-08-21T04:11:18;86.73;;;12.40;;
8514;SDS011;4295;51.024;7.000;2022-08-21T04:13:43;84.17;;;12.27;;
8514;SDS011;4295;51.024;7.000;2022-08-21T04:16:08;85.40;;;12.60;;
8514;SDS011;4295;51.024;7.000;2022-08-21T04:18:34;84.13;;;11.43;;
8514;SDS011;4295;51.024;7.000;2022-08-21T04:20:59;83.30;;;11.87;;
8514;SDS011;4295;51.024;7.000;2022-08-21T04:23:25;84.67;;;13.40;;
8514;SDS011;4295;51.024;7.000;2022-08-21T04:25:54;84.07;;;11.70;;
8514;SDS011;4295;51.024;7.000;2022-08-21T04:28:20;86.00;;;12.73;;
8514;SDS011;4295;51.024;7.000;2022-08-21T04:30:46;86.57;;;12.87;;
8514;SDS011;4295;51.024;7.000;2022-08-21T04:33:12;86.40;;;12.50;;
8514;SDS011;4295;51.024;7.000;2022-08-21T04:35:37;84.63;;;11.57;;
8514;SDS011;4295;51.024;7.000;2022-08-21T04:38:02;84.97;;;11.70;;
8514;SDS011;4295;51.024;7.000;2022-08-21T04:40:28;85.97;;;12.83;;
8514;SDS011;4295;51.024;7.000;2022-08-21T04:42:57;89.93;;;12.40;;
8514;SDS011;4295;51.024;7.000;2022-08-21T04:45:27;88.57;;;12.90;;
8514;SDS011;4295;51.024;7.000;2022-08-21T04:47:53;82.37;;;12.00;;
8514;SDS011;4295;51.024;7.000;2022-08-21T04:50:19;85.10;;;13.20;;
8514;SDS011;4295;51.024;7.000;2022-08-21T04:52:44;87.37;;;13.30;;
8514;SDS011;4295;51.024;7.000;2022-08-21T04:55:10;93.57;;;12.57;;
8514;SDS011;4295;51.024;7.000;2022-08-21T04:57:35;85.20;;;12.57;;
8514;SDS011;4295;51.024;7.000;2022-08-21T05:00:01;87.47;;;13.10;;
8514;SDS011;4295;51.024;7.000;2022-08-21T05:02:27;86.33;;;12.33;;
8514;SDS011;4295;51.024;7.000;2022-08-21T05:04:53;83.73;;;11.90;;
8514;SDS011;4295;51.024;7.000;2022-08-21T05:07:20;85.33;;;12.63;;
8514;SDS011;4295;51.024;7.000;2022-08-21T05:09:47;91.50;;;12.67;;
8514;SDS011;4295;51.024;7.000;2022-08-21T05:12:12;85.40;;;13.20;;
8514;SDS011;4295;51.024;7.000;2022-08-21T05:14:37;84.70;;;14.00;;
8514;SDS011;4295;51.024;7.000;2022-08-21T05:17:03;85.60;;;12.90;;
8514;SDS011;4295;51.024;7.000;2022-08-21T05:19:29;89.23;;;13.13;;
8514;SDS011;4295;51.024;7.000;2022-08-21T05:21:54;85.33;;;13.20;;
8514;SDS011;4295;51.024;7.000;2022-08-21T05:24:20;84.83;;;12.53;;
8514;SDS011;4295;51.024;7.000;2022-08-21T05:26:45;84.80;;;12.33;;
8514;SDS011;4295;51.024;7.000;2022-08-21T05:29:11;86.10;;;12.67;;
8514;SDS011;4295;51.024;7.000;2022-08-21T05:31:36;88.90;;;12.60;;
8514;SDS011;4295;51.024;7.000;2022-08-21T05:34:02;85.17;;;12.37;;
8514;SDS011;4295;51.024;7.000;2022-08-21T05:36:27;85.30;;;11.70;;
8514;SDS011;4295;51.024;7.000;2022-08-21T05:38:53;84.77;;;12.60;;
8514;SDS011;4295;51.024;7.000;2022-08-21T05:41:18;82.77;;;11.57;;
8514;SDS011;4295;51.024;7.000;2022-08-21T05:43:43;84.03;;;12.20;;
8514;SDS011;4295;51.024;7.000;2022-08-21T05:46:09;81.57;;;11.20;;
8514;SDS011;4295;51.024;7.000;2022-08-21T05:48:35;85.93;;;10.90;;
8514;SDS011;4295;51.024;7.000;2022-08-21T05:51:04;82.30;;;9.97;;
8514;SDS011;4295;51.024;7.000;2022-08-21T05:53:29;80.13;;;9.60;;
8514;SDS011;4295;51.024;7.000;2022-08-21T05:55:55;79.67;;;9.77;;
8514;SDS011;4295;51.024;7.000;2022-08-21T05:58:20;77.43;;;9.27;;
8514;SDS011;4295;51.024;7.000;2022-08-21T06:00:46;80.10;;;9.80;;
8514;SDS011;4295;51.024;7.000;2022-08-21T06:03:22;82.50;;;10.60;;
8514;SDS011;4295;51.024;7.000;2022-08-21T06:05:48;81.90;;;10.83;;
8514;SDS011;4295;51.024;7.000;2022-08-21T06:08:14;79.47;;;10.50;;
8514;SDS011;4295;51.024;7.000;2022-08-21T06:10:39;84.80;;;11.50;;
8514;SDS011;4295;51.024;7.000;2022-08-21T06:13:04;85.70;;;11.50;;
8514;SDS011;4295;51.024;7.000;2022-08-21T06:15:30;79.37;;;10.33;;
8514;SDS011;4295;51.024;7.000;2022-08-21T06:17:55;82.03;;;10.70;;
8514;SDS011;4295;51.024;7.000;2022-08-21T06:20:21;81.47;;;10.80;;
8514;SDS011;4295;51.024;7.000;2022-08-21T06:22:46;83.50;;;11.57;;
8514;SDS011;4295;51.024;7.000;2022-08-21T06:25:11;84.43;;;10.60;;
8514;SDS011;4295;51.024;7.000;2022-08-21T06:27:37;79.10;;;10.53;;
8514;SDS011;4295;51.024;7.000;2022-08-21T06:30:03;79.10;;;9.87;;
8514;SDS011;4295;51.024;7.000;2022-08-21T06:32:29;77.00;;;9.80;;
8514;SDS011;4295;51.024;7.000;2022-08-21T06:34:54;76.17;;;9.40;;
8514;SDS011;4295;51.024;7.000;2022-08-21T06:37:19;78.33;;;10.40;;
8514;SDS011;4295;51.024;7.000;2022-08-21T06:39:44;84.70;;;9.90;;
8514;SDS011;4295;51.024;7.000;2022-08-21T06:42:13;75.77;;;9.40;;
8514;SDS011;4295;51.024;7.000;2022-08-21T06:44:38;76.10;;;8.97;;
8514;SDS011;4295;51.024;7.000;2022-08-21T06:47:04;79.33;;;9.60;;
8514;SDS011;4295;51.024;7.000;2022-08-21T06:49:29;77.00;;;8.97;;
8514;SDS011;4295;51.024;7.000;2022-08-21T06:51:54;75.57;;;9.20;;
8514;SDS011;4295;51.024;7.000;2022-08-21T06:54:19;74.83;;;8.53;;
8514;SDS011;4295;51.024;7.000;2022-08-21T06:56:45;74.50;;;8.60;;
8514;SDS011;4295;51.024;7.000;2022-08-21T06:59:11;77.47;;;9.60;;
8514;SDS011;4295;51.024;7.000;2022-08-21T07:01:36;79.73;;;9.20;;
8514;SDS011;4295;51.024;7.000;2022-08-21T07:04:01;74.80;;;8.73;;
8514;SDS011;4295;51.024;7.000;2022-08-21T07:06:27;76.37;;;9.07;;
8514;SDS011;4295;51.024;7.000;2022-08-21T07:08:52;80.17;;;9.13;;
8514;SDS011;4295;51.024;7.000;2022-08-21T07:11:18;80.33;;;10.07;;
8514;SDS011;4295;51.024;7.000;2022-08-21T07:13:44;77.80;;;9.70;;
8514;SDS011;4295;51.024;7.000;2022-08-21T07:16:09;76.60;;;9.50;;
8514;SDS011;4295;51.024;7.000;2022-08-21T07:18:35;75.80;;;9.63;;
8514;SDS011;4295;51.024;7.000;2022-08-21T07:21:01;77.73;;;9.10;;
8514;SDS011;4295;51.024;7.000;2022-08-21T07:23:28;79.37;;;9.37;;
8514;SDS011;4295;51.024;7.000;2022-08-21T07:25:54;78.73;;;8.93;;
8514;SDS011;4295;51.024;7.000;2022-08-21T07:28:20;74.80;;;9.07;;
8514;SDS011;4295;51.024;7.000;2022-08-21T07:30:45;78.17;;;8.60;;
8514;SDS011;4295;51.024;7.000;2022-08-21T07:33:11;79.03;;;8.93;;
8514;SDS011;4295;51.024;7.000;2022-08-21T07:35:37;77.10;;;8.57;;
8514;SDS011;4295;51.024;7.000;2022-08-21T07:38:02;80.00;;;9.00;;
8514;SDS011;4295;51.024;7.000;2022-08-21T07:40:27;79.73;;;9.20;;
8514;SDS011;4295;51.024;7.000;2022-08-21T07:42:53;76.53;;;8.43;;
8514;SDS011;4295;51.024;7.000;2022-08-21T07:45:19;77.10;;;8.27;;
8514;SDS011;4295;51.024;7.000;2022-08-21T07:47:45;76.57;;;7.80;;
8514;SDS011;4295;51.024;7.000;2022-08-21T07:50:11;75.10;;;8.50;;
8514;SDS011;4295;51.024;7.000;2022-08-21T07:52:36;77.57;;;8.10;;
8514;SDS011;4295;51.024;7.000;2022-08-21T07:55:02;80.40;;;7.40;;
8514;SDS011;4295;51.024;7.000;2022-08-21T07:57:27;75.93;;;7.60;;
8514;SDS011;4295;51.024;7.000;2022-08-21T07:59:52;78.50;;;7.50;;
8514;SDS011;4295;51.024;7.000;2022-08-21T08:02:22;76.50;;;8.87;;
8514;SDS011;4295;51.024;7.000;2022-08-21T08:04:47;80.07;;;7.90;;
8514;SDS011;4295;51.024;7.000;2022-08-21T08:07:12;73.97;;;6.53;;
8514;SDS011;4295;51.024;7.000;2022-08-21T08:09:38;76.17;;;6.13;;
8514;SDS011;4295;51.024;7.000;2022-08-21T08:12:03;81.47;;;8.03;;
8514;SDS011;4295;51.024;7.000;2022-08-21T08:14:29;76.20;;;6.83;;
8514;SDS011;4295;51.024;7.000;2022-08-21T08:16:54;75.73;;;7.13;;
8514;SDS011;4295;51.024;7.000;2022-08-21T08:19:19;76.13;;;6.40;;
8514;SDS011;4295;51.024;7.000;2022-08-21T08:21:44;74.80;;;5.73;;
8514;SDS011;4295;51.024;7.000;2022-08-21T08:24:10;79.13;;;5.87;;
8514;SDS011;4295;51.024;7.000;2022-08-21T08:26:35;70.97;;;5.90;;
8514;SDS011;4295;51.024;7.000;2022-08-21T08:29:00;73.00;;;5.10;;
8514;SDS011;4295;51.024;7.000;2022-08-21T08:31:25;71.07;;;5.30;;
8514;SDS011;4295;51.024;7.000;2022-08-21T08:33:50;73.13;;;5.30;;
8514;SDS011;4295;51.024;7.000;2022-08-21T08:36:16;72.90;;;5.30;;
8514;SDS011;4295;51.024;7.000;2022-08-21T08:38:45;70.87;;;5.17;;
8514;SDS011;4295;51.024;7.000;2022-08-21T08:41:18;74.20;;;4.53;;
8514;SDS011;4295;51.024;7.000;2022-08-21T08:43:49;70.13;;;4.77;;
8514;SDS011;4295;51.024;7.000;2022-08-21T08:46:16;70.10;;;4.47;;
8514;SDS011;4295;51.024;7.000;2022-08-21T08:48:46;77.30;;;5.20;;
8514;SDS011;4295;51.024;7.000;2022-08-21T08:54:05;74.37;;;4.80;;
8514;SDS011;4295;51.024;7.000;2022-08-21T08:56:33;70.47;;;4.63;;
8514;SDS011;4295;51.024;7.000;2022-08-21T09:01:59;72.97;;;5.60;;
8514;SDS011;4295;51.024;7.000;2022-08-21T09:04:25;73.17;;;5.27;;
8514;SDS011;4295;51.024;7.000;2022-08-21T09:06:58;77.00;;;6.10;;
8514;SDS011;4295;51.024;7.000;2022-08-21T09:12:06;75.53;;;5.70;;
8514;SDS011;4295;51.024;7.000;2022-08-21T09:27:06;70.20;;;4.00;;
8514;SDS011;4295;51.024;7.000;2022-08-21T09:29:33;76.30;;;3.83;;
8514;SDS011;4295;51.024;7.000;2022-08-21T09:31:59;71.70;;;4.37;;
8514;SDS011;4295;51.024;7.000;2022-08-21T09:34:26;67.23;;;3.67;;
8514;SDS011;4295;51.024;7.000;2022-08-21T09:36:52;69.80;;;3.87;;
8514;SDS011;4295;51.024;7.000;2022-08-21T09:39:25;72.70;;;4.10;;
8514;SDS011;4295;51.024;7.000;2022-08-21T09:42:00;70.67;;;4.33;;
8514;SDS011;4295;51.024;7.000;2022-08-21T09:44:27;71.07;;;4.40;;
8514;SDS011;4295;51.024;7.000;2022-08-21T09:46:52;70.50;;;4.43;;
8514;SDS011;4295;51.024;7.000;2022-08-21T09:49:26;72.60;;;4.60;;
8514;SDS011;4295;51.024;7.000;2022-08-21T09:51:52;70.50;;;4.30;;
8514;SDS011;4295;51.024;7.000;2022-08-21T09:54:17;72.40;;;4.80;;
8514;SDS011;4295;51.024;7.000;2022-08-21T09:59:39;70.70;;;4.00;;
8514;SDS011;4295;51.024;7.000;2022-08-21T10:02:25;71.17;;;4.63;;
8514;SDS011;4295;51.024;7.000;2022-08-21T10:04:52;70.37;;;4.10;;
8514;SDS011;4295;51.024;7.000;2022-08-21T10:07:20;68.27;;;3.77;;
8514;SDS011;4295;51.024;7.000;2022-08-21T10:09:45;69.40;;;3.90;;
8514;SDS011;4295;51.024;7.000;2022-08-21T10:17:06;69.30;;;4.27;;
8514;SDS011;4295;51.024;7.000;2022-08-21T10:19:45;70.47;;;4.77;;
8514;SDS011;4295;51.024;7.000;2022-08-21T10:30:18;72.47;;;4.67;;
8514;SDS011;4295;51.024;7.000;2022-08-21T10:33:03;69.57;;;5.10;;
8514;SDS011;4295;51.024;7.000;2022-08-21T10:36:14;73.20;;;5.00;;
8514;SDS011;4295;51.024;7.000;2022-08-21T10:41:28;69.43;;;4.40;;
8514;SDS011;4295;51.024;7.000;2022-08-21T10:51:35;71.33;;;4.77;;
8514;SDS011;4295;51.024;7.000;2022-08-21T10:56:36;70.70;;;5.10;;
8514;SDS011;4295;51.024;7.000;2022-08-21T11:01:31;70.70;;;5.07;;
8514;SDS011;4295;51.024;7.000;2022-08-21T11:06:29;69.50;;;4.77;;
8514;SDS011;4295;51.024;7.000;2022-08-21T11:09:04;68.87;;;4.60;;
8514;SDS011;4295;51.024;7.000;2022-08-21T11:11:35;68.30;;;4.37;;
8514;SDS011;4295;51.024;7.000;2022-08-21T11:14:03;73.83;;;4.80;;
8514;SDS011;4295;51.024;7.000;2022-08-21T11:21:39;69.27;;;4.03;;
8514;SDS011;4295;51.024;7.000;2022-08-21T11:26:38;74.33;;;4.50;;
8514;SDS011;4295;51.024;7.000;2022-08-21T11:29:08;68.40;;;4.03;;
8514;SDS011;4295;51.024;7.000;2022-08-21T11:31:42;70.23;;;4.30;;
8514;SDS011;4295;51.024;7.000;2022-08-21T11:36:48;67.67;;;4.43;;
8514;SDS011;4295;51.024;7.000;2022-08-21T11:39:19;69.80;;;4.53;;
8514;SDS011;4295;51.024;7.000;2022-08-21T11:44:49;67.97;;;4.40;;
8514;SDS011;4295;51.024;7.000;2022-08-21T11:47:33;72.60;;;3.90;;
8514;SDS011;4295;51.024;7.000;2022-08-21T11:50:15;68.70;;;5.10;;
8514;SDS011;4295;51.024;7.000;2022-08-21T11:52:43;73.20;;;5.60;;
8514;SDS011;4295;51.024;7.000;2022-08-21T11:58:20;69.40;;;4.60;;
8514;SDS011;4295;51.024;7.000;2022-08-21T12:00:25;68.63;;;3.70;;
8514;SDS011;4295;51.024;7.000;2022-08-21T12:02:56;66.70;;;4.10;;
8514;SDS011;4295;51.024;7.000;2022-08-21T12:05:23;65.77;;;4.03;;
8514;SDS011;4295;51.024;7.000;2022-08-21T12:07:58;66.27;;;3.63;;
8514;SDS011;4295;51.024;7.000;2022-08-21T12:10:30;74.30;;;3.97;;
8514;SDS011;4295;51.024;7.000;2022-08-21T12:13:05;69.10;;;4.03;;
8514;SDS011;4295;51.024;7.000;2022-08-21T12:15:30;69.33;;;4.00;;
8514;SDS011;4295;51.024;7.000;2022-08-21T12:20:43;69.33;;;4.23;;
8514;SDS011;4295;51.024;7.000;2022-08-21T12:25:38;69.23;;;4.03;;
8514;SDS011;4295;51.024;7.000;2022-08-21T12:28:08;70.23;;;5.23;;
8514;SDS011;4295;51.024;7.000;2022-08-21T12:30:36;68.07;;;4.73;;
8514;SDS011;4295;51.024;7.000;2022-08-21T12:33:03;69.77;;;4.40;;
8514;SDS011;4295;51.024;7.000;2022-08-21T12:35:32;67.70;;;4.47;;
8514;SDS011;4295;51.024;7.000;2022-08-21T12:38:02;68.70;;;4.40;;
8514;SDS011;4295;51.024;7.000;2022-08-21T12:40:33;70.00;;;4.43;;
8514;SDS011;4295;51.024;7.000;2022-08-21T12:43:02;70.10;;;4.13;;
8514;SDS011;4295;51.024;7.000;2022-08-21T12:45:33;67.47;;;3.80;;
8514;SDS011;4295;51.024;7.000;2022-08-21T12:48:01;71.67;;;4.27;;
8514;SDS011;4295;51.024;7.000;2022-08-21T12:50:41;68.80;;;4.10;;
8514;SDS011;4295;51.024;7.000;2022-08-21T12:55:43;67.33;;;3.80;;
8514;SDS011;4295;51.024;7.000;2022-08-21T12:58:27;72.67;;;4.57;;
8514;SDS011;4295;51.024;7.000;2022-08-21T13:01:03;69.50;;;4.77;;
8514;SDS011;4295;51.024;7.000;2022-08-21T13:03:29;68.20;;;3.80;;
8514;SDS011;4295;51.024;7.000;2022-08-21T13:05:55;73.60;;;4.73;;
8514;SDS011;4295;51.024;7.000;2022-08-21T13:08:21;67.57;;;4.30;;
8514;SDS011;4295;51.024;7.000;2022-08-21T13:10:47;66.07;;;4.10;;
8514;SDS011;4295;51.024;7.000;2022-08-21T13:13:21;68.20;;;4.73;;
8514;SDS011;4295;51.024;7.000;2022-08-21T13:15:47;73.00;;;5.00;;
8514;SDS011;4295;51.024;7.000;2022-08-21T13:18:22;69.90;;;5.23;;
8514;SDS011;4295;51.024;7.000;2022-08-21T13:20:48;78.00;;;4.30;;
8514;SDS011;4295;51.024;7.000;2022-08-21T13:23:24;67.80;;;3.70;;
8514;SDS011;4295;51.024;7.000;2022-08-21T13:25:49;67.77;;;4.00;;
8514;SDS011;4295;51.024;7.000;2022-08-21T13:28:15;70.43;;;3.90;;
8514;SDS011;4295;51.024;7.000;2022-08-21T13:30:44;71.23;;;4.53;;
8514;SDS011;4295;51.024;7.000;2022-08-21T13:33:10;68.30;;;4.50;;
8514;SDS011;4295;51.024;7.000;2022-08-21T13:35:47;67.67;;;4.50;;
8514;SDS011;4295;51.024;7.000;2022-08-21T13:38:13;67.00;;;4.13;;
8514;SDS011;4295;51.024;7.000;2022-08-21T13:40:47;66.70;;;3.90;;
8514;SDS011;4295;51.024;7.000;2022-08-21T13:43:14;66.87;;;4.17;;
8514;SDS011;4295;51.024;7.000;2022-08-21T13:45:43;67.77;;;4.47;;
8514;SDS011;4295;51.024;7.000;2022-08-21T13:48:08;68.57;;;4.43;;
8514;SDS011;4295;51.024;7.000;2022-08-21T13:50:35;68.07;;;4.50;;
8514;SDS011;4295;51.024;7.000;2022-08-21T13:53:05;66.37;;;4.13;;
8514;SDS011;4295;51.024;7.000;2022-08-21T13:55:35;65.20;;;3.90;;
8514;SDS011;4295;51.024;7.000;2022-08-21T13:58:01;70.07;;;4.40;;
8514;SDS011;4295;51.024;7.000;2022-08-21T14:00:28;68.57;;;4.20;;
8514;SDS011;4295;51.024;7.000;2022-08-21T14:02:59;68.93;;;4.83;;
8514;SDS011;4295;51.024;7.000;2022-08-21T14:05:26;67.73;;;4.13;;
8514;SDS011;4295;51.024;7.000;2022-08-21T14:07:56;68.87;;;3.83;;
8514;SDS011;4295;51.024;7.000;2022-08-21T14:10:24;75.43;;;4.70;;
8514;SDS011;4295;51.024;7.000;2022-08-21T14:12:56;68.87;;;4.87;;
8514;SDS011;4295;51.024;7.000;2022-08-21T14:15:23;65.37;;;3.80;;
8514;SDS011;4295;51.024;7.000;2022-08-21T14:17:49;67.27;;;4.50;;
8514;SDS011;4295;51.024;7.000;2022-08-21T14:20:28;67.07;;;4.23;;
8514;SDS011;4295;51.024;7.000;2022-08-21T14:22:54;66.37;;;4.23;;
8514;SDS011;4295;51.024;7.000;2022-08-21T14:30:21;68.47;;;4.37;;
8514;SDS011;4295;51.024;7.000;2022-08-21T14:32:47;65.77;;;3.80;;
8514;SDS011;4295;51.024;7.000;2022-08-21T14:35:12;67.30;;;3.80;;
8514;SDS011;4295;51.024;7.000;2022-08-21T14:37:41;65.97;;;3.60;;
8514;SDS011;4295;51.024;7.000;2022-08-21T14:40:06;65.87;;;4.23;;
8514;SDS011;4295;51.024;7.000;2022-08-21T14:42:32;66.63;;;4.40;;
8514;SDS011;4295;51.024;7.000;2022-08-21T14:44:59;69.50;;;4.00;;
8514;SDS011;4295;51.024;7.000;2022-08-21T14:47:25;66.57;;;3.83;;
8514;SDS011;4295;51.024;7.000;2022-08-21T14:49:50;67.20;;;3.93;;
8514;SDS011;4295;51.024;7.000;2022-08-21T14:52:18;68.57;;;3.73;;
8514;SDS011;4295;51.024;7.000;2022-08-21T14:54:43;66.00;;;4.20;;
8514;SDS011;4295;51.024;7.000;2022-08-21T14:57:09;67.20;;;4.30;;
8514;SDS011;4295;51.024;7.000;2022-08-21T14:59:36;68.50;;;4.20;;
8514;SDS011;4295;51.024;7.000;2022-08-21T15:02:02;69.47;;;4.10;;
8514;SDS011;4295;51.024;7.000;2022-08-21T15:04:29;66.67;;;3.87;;
8514;SDS011;4295;51.024;7.000;2022-08-21T15:06:54;67.60;;;4.40;;
8514;SDS011;4295;51.024;7.000;2022-08-21T15:09:20;68.50;;;4.00;;
8514;SDS011;4295;51.024;7.000;2022-08-21T15:11:45;65.80;;;4.10;;
8514;SDS011;4295;51.024;7.000;2022-08-21T15:14:12;64.67;;;3.60;;
8514;SDS011;4295;51.024;7.000;2022-08-21T15:16:41;66.23;;;4.10;;
8514;SDS011;4295;51.024;7.000;2022-08-21T15:19:06;67.20;;;4.17;;
8514;SDS011;4295;51.024;7.000;2022-08-21T15:21:32;65.90;;;4.50;;
8514;SDS011;4295;51.024;7.000;2022-08-21T15:23:57;66.07;;;4.30;;
8514;SDS011;4295;51.024;7.000;2022-08-21T15:26:22;66.80;;;4.17;;
8514;SDS011;4295;51.024;7.000;2022-08-21T15:28:48;66.70;;;3.70;;
8514;SDS011;4295;51.024;7.000;2022-08-21T15:31:13;67.30;;;3.67;;
8514;SDS011;4295;51.024;7.000;2022-08-21T15:33:38;67.40;;;3.80;;
8514;SDS011;4295;51.024;7.000;2022-08-21T15:36:04;68.07;;;4.23;;
8514;SDS011;4295;51.024;7.000;2022-08-21T15:38:29;66.37;;;3.97;;
8514;SDS011;4295;51.024;7.000;2022-08-21T15:40:54;67.93;;;4.60;;
8514;SDS011;4295;51.024;7.000;2022-08-21T15:43:27;67.73;;;4.37;;
8514;SDS011;4295;51.024;7.000;2022-08-21T15:45:53;69.63;;;4.70;;
8514;SDS011;4295;51.024;7.000;2022-08-21T15:48:19;68.60;;;4.80;;
8514;SDS011;4295;51.024;7.000;2022-08-21T15:50:44;69.70;;;4.83;;
8514;SDS011;4295;51.024;7.000;2022-08-21T15:53:09;69.50;;;4.00;;
8514;SDS011;4295;51.024;7.000;2022-08-21T15:55:35;67.67;;;3.80;;
8514;SDS011;4295;51.024;7.000;2022-08-21T15:58:00;68.77;;;4.10;;
8514;SDS011;4295;51.024;7.000;2022-08-21T16:00:26;68.97;;;4.10;;
8514;SDS011;4295;51.024;7.000;2022-08-21T16:02:53;66.50;;;4.40;;
8514;SDS011;4295;51.024;7.000;2022-08-21T16:05:20;68.00;;;4.27;;
8514;SDS011;4295;51.024;7.000;2022-08-21T16:07:46;69.93;;;4.03;;
8514;SDS011;4295;51.024;7.000;2022-08-21T16:10:12;68.73;;;4.10;;
8514;SDS011;4295;51.024;7.000;2022-08-21T16:12:40;68.13;;;4.67;;
8514;SDS011;4295;51.024;7.000;2022-08-21T16:15:07;65.90;;;4.30;;
8514;SDS011;4295;51.024;7.000;2022-08-21T16:17:33;68.43;;;3.93;;